createdAt,value
2022-08-22T00:00:31.985Z,19.70
2022-08-22T00:02:48.064Z,20.10
2022-08-22T00:02:59.712Z,19.80
2022-08-22T00:03:04.030Z,20.00
2022-08-22T00:04:34.454Z,19.70
2022-08-22T00:08:46.173Z,19.70
2022-08-22T00:12:54.123Z,19.70
2022-08-22T00:17:10.379Z,19.70
2022-08-22T00:21:35.484Z,19.70
2022-08-22T00:25:54.602Z,19.70
2022-08-22T00:30:08.906Z,19.60
2022-08-22T00:34:14.028Z,19.70
2022-08-22T00:38:21.963Z,19.70
2022-08-22T00:42:53.005Z,19.60
2022-08-22T00:46:57.530Z,19.70
2022-08-22T00:51:01.293Z,19.60
2022-08-22T00:55:19.513Z,19.60
2022-08-22T00:59:36.824Z,19.60
2022-08-22T01:03:38.769Z,19.60
2022-08-22T01:07:47.936Z,19.60
2022-08-22T01:12:08.674Z,19.60
2022-08-22T01:16:25.213Z,19.60
2022-08-22T01:20:45.401Z,19.60
2022-08-22T01:25:18.313Z,19.60
2022-08-22T01:29:27.706Z,19.60
2022-08-22T01:33:48.994Z,19.60
2022-08-22T01:38:00.241Z,19.60
2022-08-22T01:42:12.553Z,19.60
2022-08-22T01:46:22.491Z,19.60
2022-08-22T01:50:36.640Z,19.60
2022-08-22T01:54:42.794Z,19.60
2022-08-22T01:58:53.661Z,19.60
2022-08-22T02:03:01.309Z,19.60
2022-08-22T02:07:07.878Z,19.50
2022-08-22T02:11:11.742Z,19.60
2022-08-22T02:15:31.754Z,19.60
2022-08-22T02:19:45.126Z,19.60
2022-08-22T02:23:50.729Z,19.60
2022-08-22T02:28:07.160Z,19.50
2022-08-22T02:32:16.267Z,19.60
2022-08-22T02:36:20.956Z,19.60
2022-08-22T02:40:28.547Z,19.60
2022-08-22T02:44:33.636Z,19.50
2022-08-22T02:48:41.150Z,19.50
2022-08-22T02:52:55.993Z,19.60
2022-08-22T02:57:00.779Z,19.50
2022-08-22T03:01:03.616Z,19.60
2022-08-22T03:05:17.937Z,19.50
2022-08-22T03:09:25.285Z,19.50
2022-08-22T03:13:36.125Z,19.50
2022-08-22T03:18:00.971Z,19.50
2022-08-22T03:22:07.230Z,19.50
2022-08-22T03:26:18.079Z,19.50
2022-08-22T03:30:21.556Z,19.50
2022-08-22T03:34:24.668Z,19.50
2022-08-22T03:38:29.241Z,19.50
2022-08-22T03:42:33.620Z,19.50
2022-08-22T03:46:55.164Z,19.50
2022-08-22T03:50:59.732Z,19.40
2022-08-22T03:55:01.245Z,19.50
2022-08-22T03:59:11.354Z,19.50
2022-08-22T04:03:16.767Z,19.50
2022-08-22T04:07:33.586Z,19.50
2022-08-22T04:11:54.030Z,19.50
2022-08-22T04:16:19.551Z,19.50
2022-08-22T04:20:42.250Z,19.50
2022-08-22T04:24:55.999Z,19.50
2022-08-22T04:29:02.198Z,19.40
2022-08-22T04:33:17.551Z,19.50
2022-08-22T04:37:27.836Z,19.50
2022-08-22T04:41:46.687Z,19.50
2022-08-22T04:46:08.100Z,19.40
2022-08-22T04:50:17.323Z,19.40
2022-08-22T04:54:57.744Z,19.40
2022-08-22T04:59:10.371Z,19.40
2022-08-22T05:03:15.032Z,19.50
2022-08-22T05:07:19.582Z,19.50
2022-08-22T05:11:22.958Z,19.50
2022-08-22T05:15:27.275Z,19.50
2022-08-22T05:19:34.581Z,19.50
2022-08-22T05:23:38.258Z,19.50
2022-08-22T05:27:42.036Z,19.60
2022-08-22T05:31:47.562Z,19.60
2022-08-22T05:35:58.616Z,19.50
2022-08-22T05:40:00.455Z,19.60
2022-08-22T05:44:02.548Z,19.60
2022-08-22T05:48:04.261Z,19.60
2022-08-22T05:52:08.872Z,19.60
2022-08-22T05:56:10.365Z,19.60
2022-08-22T06:00:14.554Z,19.60
2022-08-22T06:04:25.242Z,19.60
2022-08-22T06:08:40.950Z,19.60
2022-08-22T06:12:54.480Z,19.60
2022-08-22T06:17:05.355Z,19.60
2022-08-22T06:21:10.408Z,19.60
2022-08-22T06:25:13.095Z,19.70
2022-08-22T06:29:17.700Z,19.60
2022-08-22T06:33:22.558Z,19.60
2022-08-22T06:37:31.567Z,19.60
2022-08-22T06:41:35.605Z,19.70
2022-08-22T06:45:37.753Z,19.70
2022-08-22T06:49:40.320Z,19.60
2022-08-22T06:53:50.685Z,19.70
2022-08-22T06:58:05.863Z,19.70
2022-08-22T07:02:17.574Z,19.70
2022-08-22T07:06:28.248Z,19.70
2022-08-22T07:10:29.937Z,19.70
2022-08-22T07:14:38.394Z,19.70
2022-08-22T07:18:47.904Z,19.70
2022-08-22T07:23:00.876Z,19.70
2022-08-22T07:27:06.091Z,19.70
2022-08-22T07:31:14.622Z,19.70
2022-08-22T07:35:21.595Z,19.70
2022-08-22T07:39:38.305Z,19.70
2022-08-22T07:43:46.415Z,19.70
2022-08-22T07:48:03.378Z,19.70
2022-08-22T07:52:08.008Z,19.70
2022-08-22T07:56:15.942Z,19.70
2022-08-22T08:00:18.918Z,19.70
2022-08-22T08:04:24.771Z,19.70
2022-08-22T08:08:35.660Z,19.70
2022-08-22T08:12:44.228Z,19.70
2022-08-22T08:16:57.742Z,19.70
2022-08-22T08:21:02.016Z,19.70
2022-08-22T08:25:05.253Z,19.70
2022-08-22T08:29:07.290Z,19.70
2022-08-22T08:33:25.594Z,19.70
2022-08-22T08:37:33.315Z,19.80
2022-08-22T08:41:43.655Z,19.70
2022-08-22T08:46:10.680Z,19.70
2022-08-22T08:50:31.461Z,19.80
2022-08-22T08:54:55.478Z,19.70
2022-08-22T08:59:25.513Z,19.80
2022-08-22T09:03:43.812Z,19.80
2022-08-22T09:08:00.916Z,19.70
2022-08-22T09:12:14.497Z,19.80
2022-08-22T09:16:25.272Z,19.80
2022-08-22T09:20:47.481Z,19.70
2022-08-22T09:25:06.002Z,19.80
2022-08-22T09:29:29.036Z,19.80
2022-08-22T09:33:39.441Z,19.80
2022-08-22T09:37:53.117Z,19.80
2022-08-22T09:42:14.755Z,19.80
2022-08-22T09:46:22.298Z,19.80
2022-08-22T09:50:46.538Z,19.70
2022-08-22T09:54:52.455Z,19.80
2022-08-22T09:59:09.860Z,19.80
2022-08-22T10:03:20.683Z,19.70
2022-08-22T10:07:25.944Z,19.80
2022-08-22T10:11:42.343Z,19.70
2022-08-22T10:15:50.051Z,19.80
2022-08-22T10:19:54.829Z,19.80
2022-08-22T10:24:03.515Z,19.70
2022-08-22T10:28:14.800Z,19.70
2022-08-22T10:32:27.030Z,19.70
2022-08-22T10:36:28.773Z,19.80
2022-08-22T10:40:36.962Z,19.70
2022-08-22T10:44:42.987Z,19.80
2022-08-22T10:49:08.011Z,19.70
2022-08-22T10:53:33.072Z,19.80
2022-08-22T10:57:52.699Z,19.80
2022-08-22T11:02:20.945Z,19.80
2022-08-22T11:06:41.110Z,19.80
2022-08-22T11:11:05.196Z,19.80
2022-08-22T11:15:15.274Z,19.80
2022-08-22T11:19:35.662Z,19.80
2022-08-22T11:23:40.607Z,19.80
2022-08-22T11:27:57.638Z,19.80
2022-08-22T11:32:08.922Z,19.80
2022-08-22T11:36:11.104Z,19.80
2022-08-22T11:40:19.194Z,19.80
2022-08-22T11:44:27.608Z,19.70
2022-08-22T11:48:53.509Z,19.80
2022-08-22T11:57:32.335Z,19.80
2022-08-22T12:01:42.341Z,19.80
2022-08-22T12:06:02.696Z,19.70
2022-08-22T12:10:13.676Z,19.80
2022-08-22T12:14:34.932Z,19.80
2022-08-22T12:19:02.054Z,19.80
2022-08-22T12:23:23.370Z,19.80
2022-08-22T12:27:55.189Z,19.80
2022-08-22T12:32:15.755Z,19.80
2022-08-22T12:36:20.379Z,19.80
2022-08-22T12:40:21.868Z,19.80
2022-08-22T12:44:32.319Z,19.80
2022-08-22T12:48:53.329Z,19.80
2022-08-22T12:53:21.951Z,19.80
2022-08-22T12:57:43.538Z,19.80
2022-08-22T13:01:47.750Z,19.80
2022-08-22T13:05:56.261Z,19.80
2022-08-22T13:10:13.679Z,19.80
2022-08-22T13:14:25.875Z,19.80
2022-08-22T13:18:32.457Z,19.80
2022-08-22T13:22:39.783Z,19.80
2022-08-22T13:26:49.176Z,19.80
2022-08-22T13:30:52.918Z,19.80
2022-08-22T13:34:55.572Z,19.80
2022-08-22T13:38:57.827Z,19.80
2022-08-22T13:43:11.623Z,19.80
2022-08-22T13:47:18.499Z,19.80
2022-08-22T13:51:36.417Z,19.80
2022-08-22T13:55:45.370Z,19.80
2022-08-22T14:00:05.964Z,19.80
2022-08-22T14:04:32.222Z,19.80
2022-08-22T14:08:45.891Z,19.80
2022-08-22T14:12:56.694Z,19.80
2022-08-22T14:16:59.236Z,19.80
2022-08-22T14:21:18.841Z,19.80
2022-08-22T14:25:22.755Z,19.80
2022-08-22T14:29:27.658Z,19.80
2022-08-22T14:33:40.011Z,19.80
2022-08-22T14:37:43.801Z,19.80
2022-08-22T14:41:55.420Z,19.80
2022-08-22T14:46:10.048Z,19.80
2022-08-22T14:50:31.965Z,19.80
2022-08-22T14:54:34.398Z,19.80
2022-08-22T14:58:54.695Z,19.80
2022-08-22T15:03:20.576Z,19.80
2022-08-22T15:07:26.961Z,19.80
2022-08-22T15:11:32.058Z,19.80
2022-08-22T15:15:49.398Z,19.80
2022-08-22T15:20:05.027Z,19.80
2022-08-22T15:24:12.198Z,19.80
2022-08-22T15:28:17.141Z,19.80
2022-08-22T15:32:26.786Z,19.80
2022-08-22T15:36:28.518Z,19.80
2022-08-22T15:40:34.017Z,19.80
2022-08-22T15:44:37.907Z,19.80
2022-08-22T15:48:41.501Z,19.80
2022-08-22T15:53:05.235Z,19.80
2022-08-22T15:57:09.153Z,19.80
2022-08-22T16:01:19.950Z,19.80
2022-08-22T16:05:25.029Z,19.80
2022-08-22T16:09:31.866Z,19.80
2022-08-22T16:13:38.218Z,19.80
2022-08-22T16:17:42.627Z,19.80
2022-08-22T16:21:44.199Z,19.80
2022-08-22T16:25:45.743Z,19.80
2022-08-22T16:29:47.324Z,19.80
2022-08-22T16:33:48.994Z,19.80
2022-08-22T16:37:51.249Z,19.80
2022-08-22T16:41:55.566Z,19.80
2022-08-22T16:45:57.739Z,19.80
2022-08-22T16:50:05.413Z,19.80
2022-08-22T16:54:08.969Z,19.80
2022-08-22T16:58:13.758Z,19.80
2022-08-22T17:02:25.421Z,19.80
2022-08-22T17:06:28.458Z,19.80
2022-08-22T17:10:47.991Z,19.80
2022-08-22T17:14:56.552Z,19.80
2022-08-22T17:19:18.437Z,19.80
2022-08-22T17:23:29.249Z,19.80
2022-08-22T17:32:30.660Z,19.80
2022-08-22T17:36:38.783Z,19.80
2022-08-22T17:40:43.341Z,19.80
2022-08-22T17:44:47.889Z,19.80
2022-08-22T17:48:53.560Z,19.80
2022-08-22T17:52:59.020Z,19.80
2022-08-22T17:57:06.855Z,19.80
2022-08-22T18:01:13.511Z,19.80
2022-08-22T18:05:20.555Z,19.80
2022-08-22T18:09:29.644Z,19.80
2022-08-22T18:13:42.110Z,19.80
2022-08-22T18:17:48.537Z,19.80
2022-08-22T18:21:53.278Z,19.80
2022-08-22T18:26:07.789Z,19.80
2022-08-22T18:30:27.720Z,19.80
2022-08-22T18:34:40.872Z,19.80
2022-08-22T18:38:55.070Z,19.80
2022-08-22T18:43:26.027Z,19.80
2022-08-22T18:47:32.524Z,19.80
2022-08-22T18:51:38.285Z,19.80
2022-08-22T18:55:40.150Z,19.80
2022-08-22T18:59:57.282Z,19.80
2022-08-22T19:04:11.775Z,19.80
2022-08-22T19:08:23.479Z,19.80
2022-08-22T19:12:35.785Z,19.80
2022-08-22T19:17:03.308Z,19.80
2022-08-22T19:21:34.334Z,19.80
2022-08-22T19:25:55.833Z,19.80
2022-08-22T19:29:59.266Z,19.80
2022-08-22T19:34:18.234Z,19.80
2022-08-22T19:38:38.569Z,19.80
2022-08-22T19:42:43.174Z,19.80
2022-08-22T19:46:47.992Z,19.80
2022-08-22T19:51:05.862Z,19.80
2022-08-22T19:55:20.284Z,19.80
2022-08-22T19:59:40.732Z,19.80
2022-08-22T20:03:57.766Z,19.80
2022-08-22T20:08:25.361Z,19.80
2022-08-22T20:12:29.849Z,19.80
2022-08-22T20:16:50.419Z,19.80
2022-08-22T20:20:57.478Z,19.80
2022-08-22T20:25:42.454Z,19.80
2022-08-22T20:29:42.333Z,19.80
2022-08-22T20:33:46.047Z,19.80
2022-08-22T20:38:06.222Z,19.80
2022-08-22T20:42:13.218Z,19.80
2022-08-22T20:46:22.517Z,19.80
2022-08-22T20:50:27.828Z,19.80
2022-08-22T20:54:31.313Z,19.80
2022-08-22T20:58:38.385Z,19.80
2022-08-22T21:02:42.539Z,19.80
2022-08-22T21:06:44.066Z,19.80
2022-08-22T21:11:14.574Z,19.80
2022-08-22T21:15:28.752Z,19.80
2022-08-22T21:19:30.298Z,19.80
2022-08-22T21:23:32.392Z,19.80
2022-08-22T21:27:34.962Z,19.80
2022-08-22T21:31:47.657Z,19.90
2022-08-22T21:35:54.473Z,19.90
2022-08-22T21:40:01.644Z,19.80
2022-08-22T21:44:21.946Z,19.80
2022-08-22T21:48:31.151Z,19.80
2022-08-22T21:52:37.297Z,19.80
2022-08-22T21:56:40.042Z,19.80
2022-08-22T22:00:48.565Z,19.80
2022-08-22T22:04:50.666Z,19.80
2022-08-22T22:08:52.357Z,19.80
2022-08-22T22:12:54.774Z,19.80
2022-08-22T22:16:56.314Z,19.80
2022-08-22T22:20:58.157Z,19.80
2022-08-22T22:24:59.686Z,19.80
2022-08-22T22:29:02.390Z,19.80
2022-08-22T22:33:04.214Z,19.80
2022-08-22T22:37:08.109Z,19.80
2022-08-22T22:41:09.813Z,19.80
2022-08-22T22:45:11.323Z,19.80
2022-08-22T22:49:12.846Z,19.80
2022-08-22T22:53:19.326Z,19.80
2022-08-22T22:57:25.557Z,19.80
2022-08-22T23:01:27.453Z,19.80
2022-08-22T23:05:29.415Z,19.80
2022-08-22T23:09:38.703Z,19.80
2022-08-22T23:13:48.091Z,19.80
2022-08-22T23:17:49.788Z,19.80
2022-08-22T23:21:51.850Z,19.80
2022-08-22T23:25:53.433Z,19.80
2022-08-22T23:29:54.953Z,19.80
2022-08-22T23:33:57.115Z,19.80
2022-08-22T23:37:58.897Z,19.80
2022-08-22T23:42:01.071Z,19.80
2022-08-22T23:46:02.661Z,19.80
2022-08-22T23:50:06.311Z,19.80
2022-08-22T23:54:08.741Z,19.80
2022-08-22T23:58:10.518Z,19.80
